Time;durP1;ratioP1;P1;durP2;ratioP2;P2;SDS_P1;SDS_P2;PMS_P1;PMS_P2;Temp;Humidity;BMP_temperature;BMP_pressure;BME280_temperature;BME280_humidity;BME280_pressure;Samples;Min_cycle;Max_cycle;Signal;HPM_P1;HPM_P2
2021/04/14 00:01:33;;;;;;;;;458.75;319.50;;;;;9.42;76.25;101707.22;4997001;28;8891;-83
2021/04/14 00:04:28;;;;;;;;;210.50;168.75;;;;;9.41;75.53;101702.84;4994453;28;8865;-84
2021/04/14 00:07:24;;;;;;;;;222.25;156.50;;;;;9.30;75.61;101695.84;4996299;28;8828;-83
2021/04/14 00:09:53;;;;;;;;;123.00;94.00;;;;;9.44;74.89;101690.41;4980735;28;8856;-83
2021/04/14 00:12:25;;;;;;;;;125.67;114.67;;;;;9.17;75.51;101702.06;5001099;28;8856;-83
2021/04/14 00:15:32;;;;;;;;;129.00;105.33;;;;;9.06;75.86;101695.88;4991923;28;8886;-84
2021/04/14 00:18:00;;;;;;;;;147.33;109.67;;;;;8.84;77.33;101698.38;4997481;28;8848;-83
2021/04/14 00:20:55;;;;;;;;;119.67;92.67;;;;;8.83;77.48;101693.97;4990690;28;8859;-82
2021/04/14 00:23:55;;;;;;;;;94.67;67.33;;;;;8.77;77.97;101704.25;4993487;28;8885;-81
2021/04/14 00:26:51;;;;;;;;;103.33;80.33;;;;;8.75;78.22;101700.97;4987938;28;11651;-81
2021/04/14 00:29:46;;;;;;;;;127.33;107.00;;;;;8.76;78.32;101704.53;4994132;28;8848;-82
2021/04/14 00:32:15;;;;;;;;;168.67;121.00;;;;;8.76;78.27;101699.84;4996680;28;8856;-82
2021/04/14 00:35:11;;;;;;;;;190.75;145.75;;;;;8.80;78.34;101698.13;4980517;28;8854;-81
2021/04/14 00:37:59;;;;;;;;;219.25;174.00;;;;;8.83;78.04;101702.25;4992302;28;8859;-82
2021/04/14 00:41:02;;;;;;;;;228.50;174.00;;;;;8.91;77.88;101698.84;4988639;28;8887;-82
2021/04/14 00:43:58;;;;;;;;;259.00;175.75;;;;;8.99;78.18;101700.13;4996454;28;8831;-82
2021/04/14 00:46:54;;;;;;;;;196.75;150.00;;;;;8.85;78.73;101687.03;4987981;28;8888;-83
2021/04/14 00:49:52;;;;;;;;;167.67;129.00;;;;;8.73;78.58;101685.81;4994852;28;8898;-82
2021/04/14 00:52:48;;;;;;;;;159.00;124.67;;;;;8.68;79.65;101688.66;4981731;28;8969;-83
2021/04/14 00:55:46;;;;;;;;;173.67;121.33;;;;;8.72;79.61;101679.47;4993446;28;8868;-83
2021/04/14 00:58:41;;;;;;;;;161.33;117.67;;;;;8.67;79.82;101673.22;4981325;28;8838;-83
2021/04/14 01:01:37;;;;;;;;;149.67;102.33;;;;;8.74;79.90;101671.75;4985674;28;8837;-81
2021/04/14 01:04:05;;;;;;;;;98.67;75.00;;;;;8.62;80.47;101683.19;4978221;28;8851;-82
2021/04/14 01:07:02;;;;;;;;;87.67;63.33;;;;;8.76;79.64;101685.25;4975094;28;8851;-82
2021/04/14 01:09:47;;;;;;;;;75.25;55.25;;;;;8.73;79.57;101685.81;4981318;28;8847;-83
2021/04/14 01:12:43;;;;;;;;;51.00;42.00;;;;;8.47;79.86;101680.59;4987316;28;11729;-82
2021/04/14 01:15:41;;;;;;;;;51.25;39.00;;;;;8.38;79.82;101689.81;4994850;28;11576;-82
2021/04/14 01:18:39;;;;;;;;;62.50;49.75;;;;;8.41;79.54;101689.22;4994945;28;11875;-82
2021/04/14 01:21:39;;;;;;;;;40.75;38.25;;;;;8.46;79.20;101687.22;4990926;28;11574;-82
2021/04/14 01:24:34;;;;;;;;;74.25;56.25;;;;;8.45;79.16;101691.09;4998915;28;11642;-82
2021/04/14 01:27:30;;;;;;;;;94.00;70.33;;;;;8.26;79.50;101688.22;4981245;28;12308;-84
2021/04/14 01:30:28;;;;;;;;;113.67;96.33;;;;;8.18;80.13;101680.59;5000419;28;8830;-82
2021/04/14 01:33:28;;;;;;;;;113.33;90.33;;;;;8.19;79.94;101673.97;4996153;28;8854;-83
2021/04/14 01:36:18;;;;;;;;;86.67;65.00;;;;;8.08;80.79;101664.97;5002133;28;8918;-84
2021/04/14 01:39:15;;;;;;;;;95.33;71.33;;;;;8.04;81.03;101661.16;4983920;28;8938;-83
2021/04/14 01:42:11;;;;;;;;;111.33;92.33;;;;;8.09;81.57;101661.09;4986314;28;8838;-84
2021/04/14 01:45:11;;;;;;;;;118.00;99.67;;;;;7.95;82.49;101659.31;4995416;28;8954;-82
2021/04/14 01:48:08;;;;;;;;;145.67;111.67;;;;;8.17;81.67;101661.59;4997692;28;8894;-82
2021/04/14 01:50:58;;;;;;;;;86.00;64.67;;;;;8.19;81.85;101659.34;4995638;28;8846;-83
2021/04/14 01:53:53;;;;;;;;;72.00;58.50;;;;;8.18;81.29;101661.28;4989382;28;8859;-81
2021/04/14 01:56:49;;;;;;;;;58.75;48.75;;;;;8.17;80.50;101656.09;5005715;28;11555;-82
2021/04/14 01:59:44;;;;;;;;;59.25;50.00;;;;;8.09;80.56;101658.34;5000201;28;11617;-82
2021/04/14 02:02:26;;;;;;;;;55.00;41.75;;;;;8.05;80.78;101651.81;4986736;28;11632;-82
2021/04/14 02:05:28;;;;;;;;;39.50;38.50;;;;;8.09;80.19;101654.78;4989604;28;11561;-83
2021/04/14 02:08:24;;;;;;;;;23.75;23.50;;;;;8.01;80.41;101653.47;4987793;28;11655;-84
2021/04/14 02:11:20;;;;;;;;;35.50;33.50;;;;;8.07;80.12;101652.31;4994223;28;11550;-82
2021/04/14 02:14:15;;;;;;;;;29.25;29.25;;;;;8.00;80.23;101654.59;4988912;28;11560;-83
2021/04/14 02:17:11;;;;;;;;;37.25;35.50;;;;;7.96;80.13;101653.50;4993022;28;11707;-83
2021/04/14 02:20:09;;;;;;;;;32.00;30.00;;;;;8.03;80.06;101650.44;4983320;28;11635;-82
2021/04/14 02:22:56;;;;;;;;;31.00;28.25;;;;;8.07;79.73;101649.56;4980956;28;11624;-83
2021/04/14 02:25:57;;;;;;;;;26.50;25.00;;;;;8.12;79.11;101651.44;4992181;28;11717;-83
2021/04/14 02:28:52;;;;;;;;;34.00;29.00;;;;;8.20;79.09;101645.28;4990988;28;12434;-82
2021/04/14 02:31:48;;;;;;;;;34.50;30.00;;;;;8.17;79.18;101645.06;4991106;28;11677;-82
2021/04/14 02:34:43;;;;;;;;;26.50;24.00;;;;;8.20;79.30;101638.94;4979308;28;11643;-81
2021/04/14 02:37:39;;;;;;;;;31.25;29.50;;;;;8.09;79.34;101629.97;4988560;28;11639;-82
2021/04/14 02:40:35;;;;;;;;;31.00;29.50;;;;;8.21;79.46;101633.19;4988428;28;11687;-82
2021/04/14 02:43:20;;;;;;;;;26.25;26.25;;;;;8.07;79.64;101634.97;4990185;28;11646;-81
2021/04/14 02:46:16;;;;;;;;;40.50;36.75;;;;;8.19;79.26;101642.81;4985423;28;11740;-82
2021/04/14 02:49:12;;;;;;;;;52.25;39.25;;;;;8.37;78.64;101636.63;4989330;28;11711;-82
2021/04/14 02:52:08;;;;;;;;;44.50;39.75;;;;;8.38;79.13;101634.69;4988164;28;11792;-82
2021/04/14 02:54:50;;;;;;;;;30.00;29.50;;;;;8.39;78.81;101641.81;4995169;28;11780;-82
2021/04/14 02:57:26;;;;;;;;;36.75;36.50;;;;;8.46;78.71;101640.34;4992493;28;11621;-83
2021/04/14 03:00:24;;;;;;;;;42.00;37.75;;;;;8.58;78.67;101650.97;4987441;28;11640;-82
2021/04/14 03:03:20;;;;;;;;;47.00;43.25;;;;;8.49;79.08;101641.69;4989061;28;11649;-81
2021/04/14 03:06:15;;;;;;;;;43.50;39.50;;;;;8.51;79.22;101644.97;4990019;28;11702;-82
2021/04/14 03:09:11;;;;;;;;;34.25;33.75;;;;;8.59;79.19;101655.38;4993529;28;11626;-84
2021/04/14 03:12:08;;;;;;;;;40.50;38.75;;;;;8.61;78.52;101645.69;4990040;28;11636;-82
2021/04/14 03:15:06;;;;;;;;;39.00;37.25;;;;;8.56;78.42;101648.50;4968112;28;11624;-83
2021/04/14 03:18:02;;;;;;;;;35.00;32.00;;;;;8.69;77.95;101644.22;4960110;28;11639;-82
2021/04/14 03:20:33;;;;;;;;;32.50;28.25;;;;;8.53;78.10;101653.78;4988802;28;11633;-85
2021/04/14 03:23:29;;;;;;;;;38.00;37.50;;;;;8.50;78.06;101648.84;4973289;28;11730;-83
2021/04/14 03:26:25;;;;;;;;;44.25;38.50;;;;;8.55;77.93;101655.13;4972386;28;11714;-83
2021/04/14 03:29:20;;;;;;;;;34.75;32.50;;;;;8.45;78.11;101655.25;4978888;28;11613;-83
2021/04/14 03:32:03;;;;;;;;;38.75;34.75;;;;;8.50;78.04;101654.38;4973653;28;11699;-82
2021/04/14 03:34:31;;;;;;;;;35.00;30.50;;;;;8.39;78.47;101656.44;4972471;28;12470;-84
2021/04/14 03:37:26;;;;;;;;;35.50;34.00;;;;;8.37;78.61;101661.41;4968034;28;11615;-85
2021/04/14 03:40:22;;;;;;;;;26.25;25.00;;;;;8.63;77.62;101661.94;4974604;28;11644;-83
2021/04/14 03:42:52;;;;;;;;;30.50;30.50;;;;;8.54;78.26;101647.97;4971558;28;11633;-82
2021/04/14 03:45:45;;;;;;;;;34.75;32.75;;;;;8.54;77.98;101650.75;4974822;28;11639;-83
2021/04/14 03:48:13;;;;;;;;;34.25;32.00;;;;;8.59;77.65;101650.69;4984224;28;11656;-82
2021/04/14 03:51:08;;;;;;;;;34.75;31.75;;;;;8.59;77.07;101653.44;4966582;28;11619;-85
2021/04/14 03:53:39;;;;;;;;;28.25;28.25;;;;;8.60;76.91;101649.56;4973658;28;11604;-82
2021/04/14 03:56:35;;;;;;;;;28.75;26.50;;;;;8.48;77.65;101651.91;4968987;28;11817;-82
2021/04/14 03:59:31;;;;;;;;;27.25;26.00;;;;;8.40;77.77;101644.28;4979122;28;11647;-85
2021/04/14 04:02:27;;;;;;;;;31.00;29.00;;;;;8.25;78.15;101649.94;4983029;28;11607;-83
2021/04/14 04:05:23;;;;;;;;;29.75;26.75;;;;;8.32;78.18;101655.91;4982242;28;11620;-82
2021/04/14 04:08:18;;;;;;;;;35.25;32.50;;;;;8.34;78.41;101649.00;4974867;28;12433;-87
2021/04/14 04:10:46;;;;;;;;;32.00;29.50;;;;;8.41;78.30;101637.66;4975708;28;11626;-84
2021/04/14 04:13:15;;;;;;;;;32.25;32.00;;;;;8.50;78.08;101644.16;4976717;28;11767;-86
2021/04/14 04:15:43;;;;;;;;;27.25;26.00;;;;;8.66;77.70;101652.25;4976424;28;11719;-85
2021/04/14 04:18:39;;;;;;;;;25.50;24.75;;;;;8.74;77.02;101649.69;4985078;28;11731;-85
2021/04/14 04:21:35;;;;;;;;;24.00;23.00;;;;;8.63;77.53;101653.66;4980018;28;11642;-87
2021/04/14 04:24:17;;;;;;;;;44.50;37.25;;;;;8.64;77.41;101653.38;4960810;28;11621;-87
2021/04/14 04:27:13;;;;;;;;;50.00;40.25;;;;;8.81;76.44;101663.09;4976190;28;11607;-85
2021/04/14 04:29:42;;;;;;;;;43.50;39.50;;;;;8.83;76.83;101652.59;4977503;28;11734;-85
2021/04/14 04:32:11;;;;;;;;;63.25;51.50;;;;;8.68;76.85;101659.13;4977036;28;11673;-84
2021/04/14 04:35:08;;;;;;;;;69.75;54.50;;;;;8.72;76.82;101651.91;4981055;28;11645;-85
2021/04/14 04:37:35;;;;;;;;;29.25;26.00;;;;;8.82;76.93;101653.72;4994941;28;11578;-82
2021/04/14 04:40:06;;;;;;;;;25.00;25.00;;;;;8.89;76.59;101651.41;4978855;28;11612;-84
2021/04/14 04:43:03;;;;;;;;;48.50;43.00;;;;;8.95;76.29;101652.16;4988697;28;12409;-83
2021/04/14 04:45:33;;;;;;;;;25.75;25.75;;;;;8.90;76.56;101653.06;4980061;28;11728;-85
2021/04/14 04:48:15;;;;;;;;;34.75;34.75;;;;;8.88;76.18;101647.00;4976860;28;11754;-83
2021/04/14 04:50:43;;;;;;;;;71.00;57.00;;;;;8.77;76.33;101649.06;4977179;28;11800;-82
2021/04/14 04:53:21;;;;;;;;;47.25;40.50;;;;;8.84;76.29;101638.50;4978170;28;11670;-85
2021/04/14 04:55:50;;;;;;;;;21.00;19.75;;;;;8.82;76.14;101639.94;4976624;28;11722;-84
2021/04/14 04:58:45;;;;;;;;;34.00;33.00;;;;;8.96;75.56;101628.97;4980108;28;11653;-83
2021/04/14 05:01:42;;;;;;;;;38.25;32.00;;;;;8.86;76.23;101629.94;4973655;28;12462;-81
2021/04/14 05:04:41;;;;;;;;;36.75;35.25;;;;;9.01;75.63;101626.97;4973355;28;11749;-89
2021/04/14 05:07:36;;;;;;;;;36.00;35.25;;;;;8.98;75.92;101640.53;4972743;28;11658;-85
2021/04/14 05:10:33;;;;;;;;;47.75;43.00;;;;;9.17;75.26;101636.66;4964587;28;12531;-88
2021/04/14 05:13:21;;;;;;;;;45.75;40.25;;;;;9.19;75.14;101639.13;4955541;28;12436;-90
2021/04/14 05:16:04;;;;;;;;;41.75;39.00;;;;;9.11;75.07;101637.84;4971954;28;11684;-86
2021/04/14 05:19:00;;;;;;;;;37.25;36.75;;;;;9.25;74.96;101626.88;4961927;28;11638;-88
2021/04/14 05:21:31;;;;;;;;;40.75;37.75;;;;;9.41;74.76;101630.22;4978961;28;12426;-86
2021/04/14 05:23:59;;;;;;;;;36.75;36.00;;;;;9.42;74.03;101629.91;4992446;28;11643;-87
2021/04/14 05:26:55;;;;;;;;;37.25;35.00;;;;;9.40;74.43;101623.06;4996979;28;11682;-86
2021/04/14 05:29:50;;;;;;;;;67.75;45.25;;;;;9.53;74.58;101621.50;4987133;28;11669;-86
2021/04/14 05:32:48;;;;;;;;;28.25;27.00;;;;;9.71;73.91;101617.84;4980108;28;11682;-84
2021/04/14 05:35:25;;;;;;;;;33.50;33.50;;;;;9.80;73.58;101618.81;4984594;28;11590;-84
2021/04/14 05:37:53;;;;;;;;;36.50;33.75;;;;;9.90;73.40;101610.34;4963325;28;11609;-83
2021/04/14 05:40:23;;;;;;;;;42.50;38.50;;;;;9.95;73.16;101617.72;4976698;28;11659;-82
2021/04/14 05:42:51;;;;;;;;;35.75;34.00;;;;;10.02;73.61;101609.84;4975833;28;11640;-84
2021/04/14 05:45:57;;;;;;;;;31.00;31.00;;;;;10.02;73.06;101616.19;4987613;28;11621;-85
2021/04/14 05:48:25;;;;;;;;;27.50;26.75;;;;;10.21;72.77;101620.84;4989806;28;11587;-83
2021/04/14 05:50:55;;;;;;;;;30.25;30.25;;;;;10.17;73.46;101620.63;4990687;28;11538;-83
2021/04/14 05:53:51;;;;;;;;;50.00;39.25;;;;;10.29;72.76;101620.16;4967160;28;11611;-85
2021/04/14 05:56:20;;;;;;;;;39.75;37.75;;;;;10.41;72.16;101614.91;4975393;28;11649;-85
2021/04/14 05:59:16;;;;;;;;;40.00;37.00;;;;;10.53;71.37;101611.66;4968462;28;11574;-81
2021/04/14 06:02:41;;;;;;;;;42.25;39.75;;;;;10.51;71.73;101613.91;4973695;28;12450;-84
2021/04/14 06:05:37;;;;;;;;;35.75;34.25;;;;;10.67;71.30;101611.66;4975518;28;12379;-84
2021/04/14 06:08:05;;;;;;;;;34.25;33.75;;;;;10.78;70.77;101613.88;4974798;28;11613;-84
2021/04/14 06:11:03;;;;;;;;;42.25;38.50;;;;;10.80;70.98;101608.84;4986470;28;11605;-83
2021/04/14 06:13:40;;;;;;;;;31.25;31.25;;;;;10.98;70.32;101603.50;4976224;28;11584;-84
2021/04/14 06:16:10;;;;;;;;;35.00;32.50;;;;;11.14;70.44;101610.31;4968000;28;11673;-84
2021/04/14 06:18:40;;;;;;;;;36.00;35.25;;;;;11.29;69.89;101609.16;4986232;28;11590;-86
2021/04/14 06:21:09;;;;;;;;;37.75;36.75;;;;;11.39;69.32;101609.69;4974258;28;11639;-84
2021/04/14 06:23:36;;;;;;;;;48.50;39.25;;;;;11.49;69.02;101605.84;4980655;28;11747;-84
2021/04/14 06:29:59;;;;;;;;;33.00;33.00;;;;;11.64;68.26;101611.03;4975190;28;11593;-83
2021/04/14 06:32:27;;;;;;;;;40.75;36.75;;;;;11.93;68.03;101601.44;4976911;28;11586;-83
2021/04/14 06:35:23;;;;;;;;;32.25;32.25;;;;;11.88;67.68;101596.84;4978733;28;11651;-82
2021/04/14 06:37:51;;;;;;;;;35.75;35.00;;;;;12.19;67.68;101594.09;4961612;28;12390;-82
2021/04/14 06:44:51;;;;;;;;;42.25;37.25;;;;;12.64;66.11;101593.88;4959548;28;11632;-83
2021/04/14 06:48:12;;;;;;;;;35.00;34.00;;;;;12.66;66.00;101594.41;4936834;29;11542;-87
2021/04/14 06:50:55;;;;;;;;;35.50;34.75;;;;;12.68;66.20;101583.78;4980747;28;11185;-86
2021/04/14 06:54:16;;;;;;;;;24.50;24.50;;;;;12.75;65.99;101578.59;5001093;28;11123;-83
2021/04/14 06:56:55;;;;;;;;;29.75;29.75;;;;;12.92;65.86;101575.00;4986749;28;11118;-84
2021/04/14 07:00:12;;;;;;;;;28.75;26.75;;;;;13.05;65.71;101576.81;4986030;28;10854;-82
2021/04/14 07:02:49;;;;;;;;;23.00;23.00;;;;;13.19;65.23;101571.13;4978542;28;11517;-82
2021/04/14 07:05:38;;;;;;;;;28.00;28.00;;;;;13.07;65.80;101570.94;4982198;28;10627;-84
2021/04/14 07:08:27;;;;;;;;;21.25;20.50;;;;;13.04;65.50;101560.50;4990081;28;10983;-82
2021/04/14 07:11:29;;;;;;;;;33.25;32.75;;;;;13.32;64.96;101566.53;4983018;28;10939;-81
2021/04/14 07:14:26;;;;;;;;;35.25;33.75;;;;;13.52;64.72;101563.09;4996923;28;11603;-82
2021/04/14 07:17:18;;;;;;;;;41.25;37.00;;;;;13.50;64.70;101568.16;4979394;28;11270;-82
2021/04/14 07:20:13;;;;;;;;;47.00;36.50;;;;;13.67;64.70;101561.75;4997068;28;11794;-78
2021/04/14 07:23:23;;;;;;;;;29.75;29.75;;;;;13.46;65.12;101564.41;4993918;28;10798;-79
2021/04/14 07:26:31;;;;;;;;;32.25;32.00;;;;;13.57;64.58;101551.81;4997869;28;10770;-79
2021/04/14 07:29:31;;;;;;;;;27.75;25.50;;;;;13.85;64.31;101557.78;4974780;28;10887;-79
2021/04/14 07:32:33;;;;;;;;;29.75;29.50;;;;;13.77;64.21;101555.03;4973441;28;11302;-80
2021/04/14 07:35:30;;;;;;;;;23.50;23.50;;;;;14.05;64.00;101559.03;4992284;28;10772;-80
2021/04/14 07:38:53;;;;;;;;;21.25;21.00;;;;;14.27;62.43;101562.69;4980274;28;10364;-80
2021/04/14 07:41:42;;;;;;;;;23.25;23.25;;;;;14.29;62.17;101561.19;4948715;28;10291;-77
2021/04/14 07:44:18;;;;;;;;;23.50;23.50;;;;;14.12;62.41;101558.50;4997860;28;10148;-80
2021/04/14 07:47:18;;;;;;;;;27.25;26.50;;;;;14.51;61.87;101556.53;4995407;28;10083;-78
2021/04/14 07:50:15;;;;;;;;;28.00;28.00;;;;;14.71;61.71;101561.31;4982988;28;10483;-80
2021/04/14 07:52:57;;;;;;;;;27.25;27.00;;;;;14.49;61.60;101565.19;4980956;28;10159;-79
2021/04/14 07:55:32;;;;;;;;;33.00;31.50;;;;;14.84;61.14;101554.66;4979012;28;10052;-79
2021/04/14 07:58:25;;;;;;;;;24.25;24.25;;;;;15.01;59.46;101562.06;4978264;28;10917;-78
2021/04/14 08:00:52;;;;;;;;;29.00;25.50;;;;;15.05;59.50;101554.69;4995528;28;10330;-80
2021/04/14 08:03:49;;;;;;;;;28.50;26.75;;;;;15.02;59.61;101561.72;4979345;28;10130;-79
2021/04/14 08:06:44;;;;;;;;;21.75;21.75;;;;;15.15;59.50;101548.69;4992913;28;10318;-77
2021/04/14 08:09:18;;;;;;;;;20.25;19.50;;;;;15.47;58.74;101549.84;4978549;28;10325;-79
2021/04/14 08:11:50;;;;;;;;;19.75;19.75;;;;;15.57;58.36;101555.00;4977958;28;10751;-78
2021/04/14 08:14:28;;;;;;;;;23.50;23.50;;;;;15.77;56.98;101546.94;4995281;28;9865;-78
2021/04/14 08:16:56;;;;;;;;;30.25;24.00;;;;;15.97;56.75;101542.47;4996011;28;9805;-80
2021/04/14 08:19:35;;;;;;;;;24.75;24.00;;;;;15.97;56.96;101539.66;4980950;28;10005;-80
2021/04/14 08:22:26;;;;;;;;;22.75;22.75;;;;;15.81;56.51;101533.94;4978213;28;9779;-80
2021/04/14 08:25:30;;;;;;;;;19.50;19.50;;;;;15.73;57.29;101535.69;4992378;28;9731;-81
2021/04/14 08:28:00;;;;;;;;;24.25;24.25;;;;;15.85;57.06;101532.91;4995614;28;9790;-81
2021/04/14 08:30:29;;;;;;;;;23.25;22.75;;;;;15.91;56.94;101530.72;4962928;28;9935;-80
2021/04/14 08:33:26;;;;;;;;;21.00;21.00;;;;;16.14;55.97;101525.50;4994773;28;9669;-80
2021/04/14 08:36:35;;;;;;;;;22.00;22.00;;;;;16.20;56.41;101518.53;4994099;28;9737;-80
2021/04/14 08:39:47;;;;;;;;;20.33;15.00;;;;;16.31;55.09;101527.22;4982016;28;9490;-80
2021/04/14 08:42:45;;;;;;;;;13.00;13.00;;;;;16.28;55.22;101517.59;4996337;28;9207;-80
2021/04/14 08:45:45;;;;;;;;;18.67;18.67;;;;;16.24;54.87;101508.28;4980349;28;9031;-80
2021/04/14 08:48:46;;;;;;;;;17.00;17.00;;;;;16.06;55.18;101499.31;4994080;28;9328;-78
2021/04/14 08:51:17;;;;;;;;;14.00;14.00;;;;;16.12;55.85;101497.13;4980463;28;9449;-81
2021/04/14 08:54:22;;;;;;;;;13.00;13.00;;;;;15.95;55.50;101500.97;4977537;28;9284;-81
2021/04/14 08:57:18;;;;;;;;;30.25;20.75;;;;;16.00;55.01;101492.34;4982028;28;9339;-79
2021/04/14 08:59:49;;;;;;;;;22.33;22.33;;;;;15.94;54.80;101499.31;4995052;28;9690;-78
2021/04/14 09:02:46;;;;;;;;;17.33;16.33;;;;;15.92;55.13;101492.47;4993018;28;9370;-79
2021/04/14 09:05:45;;;;;;;;;23.67;18.00;;;;;15.85;54.83;101495.81;4994625;28;9354;-79
2021/04/14 09:08:45;;;;;;;;;12.67;12.67;;;;;15.68;55.45;101494.06;4994350;28;9460;-79
2021/04/14 09:11:44;;;;;;;;;19.67;17.00;;;;;15.80;55.43;101487.69;4982453;28;9333;-79
2021/04/14 09:14:39;;;;;;;;;14.50;13.75;;;;;15.75;55.12;101490.72;4995058;28;9333;-79
2021/04/14 09:17:35;;;;;;;;;21.00;16.25;;;;;15.82;54.80;101483.41;4994770;28;10320;-80
2021/04/14 09:20:37;;;;;;;;;14.00;12.67;;;;;16.07;54.05;101484.22;4980274;28;9601;-79
2021/04/14 09:23:37;;;;;;;;;12.00;12.00;;;;;16.09;53.58;101479.09;4989030;28;9532;-78
2021/04/14 09:26:25;;;;;;;;;10.00;10.00;;;;;16.11;52.91;101475.97;4994987;28;9258;-80
2021/04/14 09:28:52;;;;;;;;;14.33;12.00;;;;;16.49;52.07;101470.00;4979995;28;8944;-78
2021/04/14 09:31:51;;;;;;;;;10.00;10.00;;;;;16.77;51.42;101466.44;4993207;28;9328;-78
2021/04/14 09:34:22;;;;;;;;;18.00;16.67;;;;;17.35;50.44;101464.91;4976363;28;8956;-79
2021/04/14 09:37:18;;;;;;;;;43.33;26.00;;;;;17.50;49.26;101454.91;4993940;28;9263;-80
2021/04/14 09:40:29;;;;;;;;;17.00;16.67;;;;;17.89;47.30;101457.94;4994012;28;9083;-78
2021/04/14 09:43:25;;;;;;;;;10.00;10.00;;;;;17.81;47.24;101453.34;4979008;28;8967;-80
2021/04/14 09:46:31;;;;;;;;;9.25;8.50;;;;;17.86;47.40;101455.84;4991845;28;8871;-79
2021/04/14 09:49:38;;;;;;;;;9.25;8.75;;;;;18.02;46.83;101448.25;4981598;28;9010;-78
2021/04/14 09:52:51;;;;;;;;;10.75;10.75;;;;;18.21;46.00;101455.91;4993161;28;8888;-79
2021/04/14 09:56:06;;;;;;;;;7.25;7.25;;;;;18.08;45.76;101441.19;4979874;28;8848;-79
2021/04/14 09:59:09;;;;;;;;;10.00;10.00;;;;;17.97;45.07;101446.53;4992316;28;8872;-78
2021/04/14 10:02:16;;;;;;;;;8.00;8.00;;;;;18.11;45.01;101442.47;4999861;28;8907;-78
2021/04/14 10:05:12;;;;;;;;;8.00;8.00;;;;;18.03;45.52;101442.31;4992452;28;8937;-78
2021/04/14 10:08:10;;;;;;;;;11.50;9.50;;;;;18.29;44.99;101440.88;4992414;28;8886;-78
2021/04/14 10:11:06;;;;;;;;;18.75;15.25;;;;;18.51;45.08;101439.38;4976805;28;8844;-78
2021/04/14 10:14:19;;;;;;;;;12.50;12.25;;;;;18.51;44.79;101437.38;4988536;28;8907;-78
2021/04/14 10:17:18;;;;;;;;;9.00;9.00;;;;;17.83;45.73;101439.78;4993176;28;8945;-78
2021/04/14 10:20:30;;;;;;;;;13.25;13.25;;;;;18.19;45.38;101435.84;4993007;28;8864;-78
2021/04/14 10:23:26;;;;;;;;;9.75;9.75;;;;;18.34;45.09;101440.59;5001948;28;8871;-78
2021/04/14 10:26:09;;;;;;;;;8.25;8.25;;;;;18.19;44.52;101427.47;4991880;28;9604;-79
2021/04/14 10:29:10;;;;;;;;;5.75;5.75;;;;;18.06;44.75;101438.75;4994115;28;9667;-80
2021/04/14 10:32:06;;;;;;;;;14.00;12.50;;;;;18.05;45.68;101434.34;4982087;28;9010;-79
2021/04/14 10:35:13;;;;;;;;;24.25;21.50;;;;;18.27;44.47;101432.84;4980445;28;8898;-79
2021/04/14 10:38:10;;;;;;;;;8.25;8.25;;;;;18.10;44.02;101429.66;5006023;28;8843;-79
2021/04/14 10:40:46;;;;;;;;;7.25;7.25;;;;;18.54;43.85;101431.03;4994490;28;8859;-79
2021/04/14 10:43:43;;;;;;;;;13.75;13.00;;;;;18.21;45.58;101434.31;4992884;28;8852;-79
2021/04/14 10:46:23;;;;;;;;;8.50;8.50;;;;;17.99;44.28;101427.41;4996397;28;8867;-80
2021/04/14 10:49:35;;;;;;;;;9.25;9.25;;;;;18.47;43.88;101430.06;4992817;28;8852;-79
2021/04/14 10:52:45;;;;;;;;;8.00;8.00;;;;;18.06;44.80;101416.38;5001761;28;9737;-78
2021/04/14 10:55:48;;;;;;;;;13.25;10.75;;;;;18.61;45.27;101419.97;5000428;28;8866;-80
2021/04/14 10:58:44;;;;;;;;;7.25;7.25;;;;;19.36;42.76;101427.09;4987751;28;8838;-78
2021/04/14 11:01:44;;;;;;;;;10.75;10.75;;;;;19.26;41.42;101422.13;5012114;28;8871;-79
2021/04/14 11:04:42;;;;;;;;;7.75;7.75;;;;;19.21;41.85;101419.59;5008746;28;8848;-79
2021/04/14 11:07:38;;;;;;;;;9.25;9.25;;;;;19.61;41.02;101410.72;4985387;28;8977;-78
2021/04/14 11:10:31;;;;;;;;;6.75;6.75;;;;;19.50;42.04;101420.94;4961959;28;8870;-79
2021/04/14 11:13:30;;;;;;;;;8.25;8.25;;;;;19.25;40.57;101414.88;4996587;28;9721;-78
2021/04/14 11:16:27;;;;;;;;;7.00;7.00;;;;;18.96;41.69;101410.72;4995760;28;8840;-78
2021/04/14 11:19:27;;;;;;;;;8.75;8.75;;;;;17.96;43.62;101407.72;4998052;28;8879;-79
2021/04/14 11:22:25;;;;;;;;;10.50;9.75;;;;;17.74;44.98;101398.81;5009079;28;8852;-78
2021/04/14 11:25:35;;;;;;;;;7.00;7.00;;;;;17.42;45.67;101398.00;5000663;28;9640;-78
2021/04/14 11:28:57;;;;;;;;;6.50;6.50;;;;;17.39;46.39;101398.69;5014138;28;9609;-79
2021/04/14 11:31:56;;;;;;;;;5.50;5.50;;;;;17.57;45.11;101393.56;5011359;28;8975;-79
2021/04/14 11:35:05;;;;;;;;;8.00;7.50;;;;;18.00;44.24;101395.44;4988680;28;8975;-80
2021/04/14 11:38:01;;;;;;;;;11.00;10.50;;;;;17.61;44.71;101388.88;4993413;28;8929;-79
2021/04/14 11:40:38;;;;;;;;;8.50;8.50;;;;;17.94;44.22;101390.47;4986825;28;8873;-81
2021/04/14 11:43:37;;;;;;;;;7.25;7.25;;;;;17.50;44.88;101385.81;4997284;28;8846;-80
2021/04/14 11:46:36;;;;;;;;;6.25;6.25;;;;;17.37;45.37;101384.28;4999093;28;8863;-81
2021/04/14 11:49:36;;;;;;;;;8.75;8.75;;;;;16.79;46.79;101381.13;4993498;28;8932;-80
2021/04/14 11:52:33;;;;;;;;;5.00;5.00;;;;;16.91;46.92;101371.88;5012329;28;8847;-80
2021/04/14 11:55:22;;;;;;;;;5.75;5.75;;;;;16.94;46.32;101374.78;4981285;28;8895;-80
2021/04/14 11:58:20;;;;;;;;;8.00;8.00;;;;;17.52;46.15;101372.28;4984624;28;8886;-80
2021/04/14 12:01:25;;;;;;;;;8.50;8.50;;;;;17.39;45.25;101367.13;4984836;28;8867;-79
2021/04/14 16:49:14;;;;;;;;;41.50;36.00;;;;;15.36;56.20;101269.94;4819125;29;10589;-73
2021/04/14 16:52:10;;;;;;;;;42.25;36.25;;;;;15.33;56.11;101270.63;4824537;29;10598;-74
2021/04/14 16:55:06;;;;;;;;;44.25;38.75;;;;;15.26;56.38;101264.84;4822748;29;10743;-74
2021/04/14 16:58:04;;;;;;;;;41.50;38.50;;;;;15.30;56.13;101280.50;4820619;29;10652;-74
2021/04/14 17:00:35;;;;;;;;;44.75;38.25;;;;;15.36;56.12;101280.28;4823533;29;10740;-74
2021/04/14 17:03:03;;;;;;;;;51.00;42.75;;;;;15.26;56.23;101276.81;4825635;29;10908;-73
2021/04/14 17:06:00;;;;;;;;;48.50;40.75;;;;;15.18;56.25;101274.97;4824010;29;10978;-73
2021/04/14 17:09:05;;;;;;;;;48.25;41.75;;;;;15.19;56.21;101273.78;4813890;29;10905;-72
2021/04/14 17:12:01;;;;;;;;;80.00;55.00;;;;;15.02;56.73;101282.34;4823286;29;11145;-74
2021/04/14 17:14:56;;;;;;;;;66.50;49.00;;;;;14.95;57.10;101285.75;4833769;29;11571;-74
2021/04/14 17:17:52;;;;;;;;;62.00;51.00;;;;;14.87;57.24;101285.81;4811194;29;11387;-75
2021/04/14 17:20:22;;;;;;;;;60.25;49.50;;;;;14.88;57.37;101276.31;4826797;29;11573;-74
2021/04/14 17:23:19;;;;;;;;;67.25;48.50;;;;;14.80;57.57;101286.41;4819883;29;11305;-75
2021/04/14 17:25:55;;;;;;;;;55.25;44.25;;;;;14.70;57.90;101289.59;4823770;29;11578;-75
2021/04/14 17:28:51;;;;;;;;;59.00;47.00;;;;;14.58;58.06;101284.03;4823248;29;11137;-73
2021/04/14 17:31:47;;;;;;;;;60.50;48.50;;;;;14.65;57.82;101279.53;4823174;29;11563;-75
2021/04/14 17:34:33;;;;;;;;;66.75;53.75;;;;;14.53;58.21;101287.03;4823120;29;11546;-72
2021/04/14 17:37:25;;;;;;;;;72.25;56.50;;;;;14.50;58.19;101282.97;4863190;23;11606;-78
2021/04/14 17:40:22;;;;;;;;;44.50;39.25;;;;;14.27;58.87;101290.03;4872827;29;11657;-78
2021/04/14 17:43:18;;;;;;;;;37.25;35.75;;;;;14.40;58.32;101294.47;4873710;29;12323;-78
2021/04/14 17:45:46;;;;;;;;;37.00;35.25;;;;;14.31;58.70;101296.53;4869127;29;10967;-77
2021/04/14 17:48:15;;;;;;;;;44.50;39.75;;;;;14.29;58.95;101301.63;4873907;29;10920;-77
2021/04/14 17:51:11;;;;;;;;;41.50;36.00;;;;;14.27;58.81;101309.50;4868158;29;11125;-77
2021/04/14 17:54:08;;;;;;;;;40.75;37.25;;;;;14.10;59.49;101307.66;4872174;29;11079;-77
2021/04/14 17:57:03;;;;;;;;;38.75;36.00;;;;;13.96;60.05;101302.41;4867382;29;11330;-78
2021/04/14 17:59:59;;;;;;;;;40.50;36.50;;;;;14.00;60.10;101302.53;4867477;29;11012;-77